Time;durP1;ratioP1;P1;durP2;ratioP2;P2;SDS_P1;SDS_P2;PMS_P1;PMS_P2;Temp;Humidity;BMP_temperature;BMP_pressure;BME280_temperature;BME280_humidity;BME280_pressure;Samples;Min_cycle;Max_cycle;Signal;HPM_P1;HPM_P2
2023/11/18 00:00:26;;;;;;;;;7.33;5.00;;;;;22.23;44.49;102183.00;4959948;28;45319;-73
2023/11/18 00:02:51;;;;;;;;;7.33;7.00;;;;;22.43;44.45;102212.03;4974040;28;45282;-74
2023/11/18 00:05:17;;;;;;;;;6.67;5.33;;;;;22.41;44.40;102214.00;4993930;28;46059;-75
2023/11/18 00:07:43;;;;;;;;;6.33;5.00;;;;;22.40;44.38;102222.97;4979217;28;45335;-74
2023/11/18 00:10:09;;;;;;;;;7.67;5.00;;;;;22.38;44.69;102219.63;4979078;28;45406;-74
2023/11/18 00:12:35;;;;;;;;;6.33;4.33;;;;;22.21;44.60;102179.69;4978881;28;45445;-75
2023/11/18 00:15:05;;;;;;;;;4.00;4.00;;;;;22.37;44.61;102194.09;4978733;28;46002;-74
2023/11/18 00:17:31;;;;;;;;;5.33;5.00;;;;;22.31;44.21;102173.47;4978757;28;45311;-74
2023/11/18 00:19:57;;;;;;;;;5.67;5.00;;;;;22.34;44.84;102170.53;4978847;28;45309;-75
2023/11/18 00:22:22;;;;;;;;;0.00;0.00;;;;;22.34;44.79;102174.03;4978936;28;45205;-74
2023/11/18 00:24:47;;;;;;;;;5.00;4.00;;;;;22.33;44.57;102167.03;4978853;28;45191;-75
2023/11/18 00:27:15;;;;;;;;;4.00;4.00;;;;;22.25;44.49;102153.72;4978615;28;45235;-74
2023/11/18 00:29:41;;;;;;;;;4.33;3.67;;;;;22.23;44.70;102150.34;4978566;28;45244;-74
2023/11/18 00:32:07;;;;;;;;;4.00;4.00;;;;;22.20;44.35;102138.25;4978633;28;45339;-74
2023/11/18 00:34:33;;;;;;;;;5.00;4.00;;;;;22.22;44.48;102124.84;4978330;28;46008;-74
2023/11/18 00:36:58;;;;;;;;;4.00;4.00;;;;;22.28;44.70;102137.50;4978655;28;45416;-74
2023/11/18 00:39:24;;;;;;;;;4.67;4.67;;;;;22.23;44.23;102124.69;4978567;28;45491;-74
2023/11/18 00:41:49;;;;;;;;;4.67;4.00;;;;;22.27;44.66;102126.06;4978652;28;45393;-74
2023/11/18 00:44:15;;;;;;;;;5.00;4.67;;;;;22.21;44.44;102125.81;4978106;28;46098;-75
2023/11/18 00:46:41;;;;;;;;;5.00;4.00;;;;;22.26;44.61;102116.44;4976248;28;45499;-74
2023/11/18 00:49:06;;;;;;;;;5.00;4.00;;;;;22.22;44.60;102104.47;4958927;28;45362;-74
2023/11/18 00:51:31;;;;;;;;;5.00;4.00;;;;;22.17;44.75;102096.16;4958951;28;45414;-74
2023/11/18 00:54:00;;;;;;;;;5.00;5.00;;;;;22.26;44.19;102102.34;4957414;28;48113;-74
2023/11/18 00:56:26;;;;;;;;;5.33;4.00;;;;;22.15;44.06;102085.69;4958897;28;45452;-74
2023/11/18 00:58:52;;;;;;;;;3.00;3.00;;;;;22.24;44.41;102099.84;4957778;28;45427;-74
2023/11/18 01:01:17;;;;;;;;;6.00;5.67;;;;;22.24;44.01;102089.25;4958857;28;45498;-74
2023/11/18 01:03:44;;;;;;;;;7.00;7.00;;;;;22.24;44.69;102085.75;4958725;28;46753;-74
2023/11/18 01:06:09;;;;;;;;;6.00;4.67;;;;;22.23;44.64;102082.28;4958666;28;45446;-74
2023/11/18 01:08:35;;;;;;;;;4.00;4.00;;;;;22.22;44.18;102085.94;4958430;28;50113;-74
2023/11/18 01:11:00;;;;;;;;;3.67;3.67;;;;;22.22;44.51;102091.22;4958717;28;45446;-74
2023/11/18 01:13:26;;;;;;;;;5.33;5.33;;;;;22.18;44.65;102090.69;4958116;28;45513;-74
2023/11/18 01:15:52;;;;;;;;;5.67;3.33;;;;;22.23;43.96;102108.78;4958478;28;45416;-74
2023/11/18 01:18:17;;;;;;;;;5.00;5.00;;;;;22.23;44.03;102108.78;4958559;28;45367;-75
2023/11/18 01:20:43;;;;;;;;;4.00;3.00;;;;;22.23;44.51;102105.28;4958687;28;45275;-74
2023/11/18 01:23:08;;;;;;;;;4.67;4.67;;;;;22.22;44.03;102111.59;4958377;28;46463;-74
2023/11/18 01:25:34;;;;;;;;;5.33;4.00;;;;;22.16;44.07;102110.38;4958394;28;45302;-72
2023/11/18 01:28:00;;;;;;;;;6.00;4.00;;;;;22.20;44.11;102118.88;4958130;28;45298;-74
2023/11/18 01:30:26;;;;;;;;;5.33;4.00;;;;;22.11;44.26;102104.69;4958438;28;45315;-74
2023/11/18 01:32:52;;;;;;;;;7.67;5.00;;;;;22.16;44.05;102120.97;4958063;28;47060;-74
2023/11/18 01:35:17;;;;;;;;;4.00;4.00;;;;;22.17;44.14;102127.97;4958047;28;45383;-74
2023/11/18 01:37:43;;;;;;;;;5.33;5.00;;;;;22.16;44.16;102129.78;4958386;28;45368;-74
2023/11/18 01:40:12;;;;;;;;;3.67;3.67;;;;;22.13;44.03;102119.47;4958188;28;45507;-74
2023/11/18 01:42:38;;;;;;;;;6.33;5.00;;;;;22.15;44.52;102120.13;4957675;28;46574;-74
2023/11/18 01:45:04;;;;;;;;;3.67;3.67;;;;;22.15;44.50;102130.75;4957900;28;45485;-74
2023/11/18 01:47:32;;;;;;;;;8.00;4.00;;;;;22.15;44.53;102129.91;4957922;28;45380;-74
2023/11/18 01:49:59;;;;;;;;;4.00;4.00;;;;;22.11;44.17;102110.84;4956894;28;45458;-74
2023/11/18 01:52:26;;;;;;;;;8.00;4.00;;;;;22.14;44.00;102107.03;4957769;28;45335;-74
2023/11/18 01:54:54;;;;;;;;;4.67;4.00;;;;;22.12;44.43;102101.88;4957896;28;45303;-74
2023/11/18 01:57:20;;;;;;;;;4.33;4.33;;;;;22.13;44.63;102105.38;4957431;28;45310;-74
2023/11/18 01:59:46;;;;;;;;;1.00;1.00;;;;;22.06;44.14;102090.09;4958057;28;45711;-74
2023/11/18 02:02:13;;;;;;;;;4.00;2.00;;;;;22.03;44.54;102081.59;4957778;28;45491;-74
2023/11/18 02:04:38;;;;;;;;;3.00;3.00;;;;;22.11;44.40;102071.06;4957876;28;45350;-74
2023/11/18 02:07:08;;;;;;;;;4.67;4.67;;;;;22.10;44.65;102052.66;4957744;28;45368;-75
2023/11/18 02:09:36;;;;;;;;;4.33;4.33;;;;;22.11;44.02;102051.69;4956645;28;45397;-75
2023/11/18 02:12:49;;;;;;;;;6.00;6.00;;;;;22.10;44.13;102045.53;4957149;28;45920;-75
2023/11/18 02:15:15;;;;;;;;;5.00;5.00;;;;;22.11;44.11;102033.13;4977835;28;45367;-75
2023/11/18 02:17:42;;;;;;;;;4.00;4.00;;;;;22.05;44.64;102018.66;4994536;28;45439;-74
2023/11/18 02:20:15;;;;;;;;;4.33;3.33;;;;;22.04;44.53;102022.31;4994443;28;45612;-74
2023/11/18 02:22:43;;;;;;;;;4.00;4.00;;;;;22.06;44.63;102022.97;4994193;28;46391;-74
2023/11/18 02:25:10;;;;;;;;;1.00;0.67;;;;;22.13;44.22;102021.38;4994276;28;45429;-74
2023/11/18 02:27:36;;;;;;;;;3.33;1.00;;;;;22.14;43.99;102004.50;4994116;28;45343;-75
2023/11/18 02:30:03;;;;;;;;;3.00;3.00;;;;;22.15;44.50;102005.31;4994271;28;45571;-74
2023/11/18 02:32:50;;;;;;;;;3.33;3.00;;;;;22.14;44.06;102001.03;4994113;28;47073;-74
2023/11/18 02:35:30;;;;;;;;;4.00;4.00;;;;;22.14;44.56;101998.38;4994077;28;45868;-75
2023/11/18 02:37:58;;;;;;;;;5.33;4.33;;;;;22.13;44.64;101986.09;4994277;28;45306;-74
2023/11/18 02:40:32;;;;;;;;;4.00;4.00;;;;;21.80;44.46;101934.47;4993916;28;45490;-74
2023/11/18 02:43:00;;;;;;;;;3.00;2.67;;;;;22.10;44.01;101979.28;4977523;28;46500;-73
2023/11/18 02:45:27;;;;;;;;;5.00;4.00;;;;;22.04;44.41;101970.13;4984235;28;45530;-74
2023/11/18 02:47:57;;;;;;;;;5.33;5.33;;;;;22.00;44.16;101968.78;4956884;28;45406;-75
2023/11/18 02:50:24;;;;;;;;;5.00;4.00;;;;;22.07;44.47;101977.75;4957180;28;45493;-75
2023/11/18 02:52:49;;;;;;;;;3.00;3.00;;;;;22.03;44.16;101957.88;4956790;28;45938;-73
2023/11/18 02:55:14;;;;;;;;;3.00;3.00;;;;;22.10;44.10;101963.38;4956523;28;45316;-74
2023/11/18 02:57:40;;;;;;;;;3.67;3.00;;;;;21.82;44.62;101921.06;4957184;28;45350;-74
2023/11/18 03:00:11;;;;;;;;;4.00;4.00;;;;;22.08;44.68;101957.41;4957141;28;45385;-75
2023/11/18 03:02:36;;;;;;;;;3.00;3.00;;;;;22.07;44.36;101953.91;4956847;28;47054;-74
2023/11/18 03:05:01;;;;;;;;;3.00;3.00;;;;;22.06;44.11;101946.13;4956651;28;48226;-75
2023/11/18 03:07:26;;;;;;;;;4.00;3.33;;;;;21.96;44.61;101939.09;4957104;28;45389;-74
2023/11/18 03:09:56;;;;;;;;;3.33;3.33;;;;;22.05;44.08;101952.41;4955321;28;45331;-74
2023/11/18 03:12:21;;;;;;;;;4.67;4.67;;;;;22.04;44.23;101942.81;4956747;28;46124;-74
2023/11/18 03:14:46;;;;;;;;;3.00;3.00;;;;;22.05;44.60;101932.03;4956737;28;45461;-74
2023/11/18 03:17:12;;;;;;;;;4.00;4.00;;;;;22.07;44.26;101938.00;4956980;28;45407;-75
2023/11/18 03:19:37;;;;;;;;;3.00;3.00;;;;;22.02;44.45;101928.84;4956976;28;45344;-75
2023/11/18 03:22:03;;;;;;;;;4.33;2.67;;;;;22.07;44.18;101927.41;4961953;28;46966;-75
2023/11/18 03:24:28;;;;;;;;;2.00;2.00;;;;;22.09;44.12;101931.75;4963073;28;45421;-75
2023/11/18 03:26:56;;;;;;;;;4.67;3.00;;;;;22.00;44.00;101910.47;4963331;28;45305;-74
2023/11/18 03:29:23;;;;;;;;;4.00;3.00;;;;;22.09;44.41;101921.97;4963295;28;45269;-75
2023/11/18 03:31:49;;;;;;;;;4.00;3.33;;;;;22.10;44.12;101920.13;4963105;28;47338;-75
2023/11/18 03:34:19;;;;;;;;;4.00;3.00;;;;;22.10;44.48;101910.38;4962894;28;45447;-74
2023/11/18 03:36:46;;;;;;;;;4.00;4.00;;;;;22.09;44.51;101914.03;4963239;28;45361;-74
2023/11/18 03:39:12;;;;;;;;;5.00;4.00;;;;;22.06;43.99;101919.63;4962823;28;45267;-74
2023/11/18 03:41:37;;;;;;;;;3.00;3.00;;;;;22.09;44.65;101914.03;4962893;28;46972;-74
2023/11/18 03:44:04;;;;;;;;;2.00;2.00;;;;;22.10;43.99;101914.84;4963037;28;45470;-74
2023/11/18 03:46:31;;;;;;;;;0.00;0.00;;;;;22.10;44.44;101914.84;4962864;28;45387;-75
2023/11/18 03:48:56;;;;;;;;;3.00;3.00;;;;;22.09;44.76;101914.03;4962724;28;45406;-75
2023/11/18 03:51:21;;;;;;;;;3.00;3.00;;;;;22.10;44.06;101912.19;4961873;28;63488;-73
2023/11/18 03:53:46;;;;;;;;;5.00;4.00;;;;;22.09;44.42;101900.78;4962414;28;45532;-74
2023/11/18 03:56:18;;;;;;;;;3.67;3.67;;;;;22.03;44.36;101896.06;4962378;28;56087;-75
2023/11/18 03:58:43;;;;;;;;;5.00;3.33;;;;;21.95;44.21;101873.00;4962785;28;45541;-75
2023/11/18 04:01:11;;;;;;;;;1.67;1.67;;;;;21.99;44.35;101879.66;4962626;28;46894;-74
2023/11/18 04:03:36;;;;;;;;;3.00;3.00;;;;;22.07;44.37;101877.06;4962815;28;45578;-74
2023/11/18 04:06:03;;;;;;;;;2.00;2.00;;;;;21.94;44.30;101847.47;4962731;28;45338;-74
2023/11/18 04:08:28;;;;;;;;;2.00;2.00;;;;;22.09;44.03;101863.66;4962518;28;45459;-72
2023/11/18 04:10:54;;;;;;;;;2.33;2.33;;;;;21.94;44.40;101843.03;4962391;28;47204;-73
2023/11/18 04:13:19;;;;;;;;;3.00;3.00;;;;;22.02;43.92;101857.31;4962571;28;45550;-74
2023/11/18 04:15:45;;;;;;;;;5.00;3.00;;;;;22.04;44.17;101856.16;4962727;28;45777;-74
2023/11/18 04:18:10;;;;;;;;;2.00;2.00;;;;;22.04;44.25;101855.34;4961458;28;45286;-75
2023/11/18 04:20:36;;;;;;;;;3.33;1.67;;;;;22.07;44.28;101842.59;4962576;28;45517;-74
2023/11/18 04:23:02;;;;;;;;;3.00;3.00;;;;;22.01;44.55;101837.09;4960965;28;45377;-74
2023/11/18 04:25:27;;;;;;;;;2.00;2.00;;;;;21.95;44.53;101826.16;4962500;28;45335;-74
2023/11/18 04:27:53;;;;;;;;;2.00;2.00;;;;;22.09;44.03;101844.28;4962507;28;45306;-75
2023/11/18 04:30:18;;;;;;;;;4.00;2.00;;;;;22.01;44.12;101830.00;4962272;28;46237;-75
2023/11/18 04:32:43;;;;;;;;;3.00;3.00;;;;;22.06;44.38;101845.41;4959189;28;60581;-74
2023/11/18 04:35:09;;;;;;;;;2.00;1.67;;;;;21.94;44.29;101826.28;4959257;28;45531;-72
2023/11/18 04:37:35;;;;;;;;;2.00;2.00;;;;;22.00;44.28;101830.97;4958922;28;45325;-74
2023/11/18 04:40:02;;;;;;;;;2.00;2.00;;;;;21.95;44.24;101817.34;4958885;28;47081;-74
2023/11/18 04:42:29;;;;;;;;;2.67;2.67;;;;;21.80;44.43;101795.88;4959048;28;45397;-75
2023/11/18 04:44:55;;;;;;;;;4.00;2.67;;;;;22.01;44.28;101821.22;4959060;28;45367;-74
2023/11/18 04:47:20;;;;;;;;;3.33;2.67;;;;;22.06;44.67;101827.72;4957320;28;45431;-74
2023/11/18 04:49:45;;;;;;;;;4.00;2.33;;;;;21.95;44.16;101804.94;4958909;28;46191;-74
2023/11/18 04:52:11;;;;;;;;;3.33;2.00;;;;;22.06;44.22;101819.75;4958025;28;54367;-74
2023/11/18 04:54:36;;;;;;;;;2.67;2.67;;;;;22.00;44.07;101801.81;4959156;28;45272;-74
2023/11/18 04:57:02;;;;;;;;;2.00;2.00;;;;;22.06;44.43;101803.03;4958264;28;59917;-75
2023/11/18 04:59:27;;;;;;;;;3.00;3.00;;;;;22.06;44.63;101792.41;4958671;28;45367;-74
2023/11/18 05:01:53;;;;;;;;;4.00;3.00;;;;;22.04;43.88;101784.59;4958378;28;54595;-75
2023/11/18 05:04:18;;;;;;;;;2.00;2.00;;;;;22.05;44.05;101796.88;4958947;28;45523;-75
2023/11/18 05:06:44;;;;;;;;;3.00;3.00;;;;;22.04;44.68;101800.50;4958530;28;45362;-75
2023/11/18 05:09:09;;;;;;;;;2.00;2.00;;;;;21.99;44.03;101794.03;4958565;28;46411;-74
2023/11/18 05:11:35;;;;;;;;;2.33;2.00;;;;;22.00;44.42;101780.63;4958608;28;45314;-73
2023/11/18 05:14:03;;;;;;;;;3.00;3.00;;;;;22.05;44.28;101780.97;4958720;28;45362;-75
2023/11/18 05:16:29;;;;;;;;;3.00;3.00;;;;;22.03;44.56;101784.78;4958545;28;45453;-75
2023/11/18 05:18:54;;;;;;;;;2.00;2.00;;;;;22.04;44.64;101791.75;4958444;28;45860;-74
2023/11/18 05:21:19;;;;;;;;;3.00;3.00;;;;;21.96;44.73;101766.84;4957982;28;45380;-75
2023/11/18 05:23:45;;;;;;;;;2.00;2.00;;;;;22.02;44.78;101757.44;4958600;28;45354;-75
2023/11/18 05:26:10;;;;;;;;;2.00;2.00;;;;;21.96;44.51;101758.09;4957726;28;62101;-74
2023/11/18 05:28:35;;;;;;;;;4.33;4.33;;;;;21.97;44.67;101765.03;4958293;28;46459;-74
2023/11/18 05:31:02;;;;;;;;;3.00;3.00;;;;;22.05;44.10;101782.78;4958423;28;45410;-73
2023/11/18 05:33:28;;;;;;;;;4.00;1.00;;;;;22.05;44.25;101780.16;4958312;28;45493;-74
2023/11/18 05:35:54;;;;;;;;;1.67;1.67;;;;;22.06;44.55;101771.22;4957695;28;45402;-75
2023/11/18 05:38:21;;;;;;;;;3.33;2.00;;;;;22.06;44.54;101755.31;4957979;28;46244;-73
2023/11/18 05:40:56;;;;;;;;;2.00;2.00;;;;;22.00;44.56;101746.19;4958225;28;45363;-75
2023/11/18 05:43:25;;;;;;;;;1.00;1.00;;;;;22.07;44.46;101755.16;4957972;28;45481;-72
2023/11/18 05:48:35;;;;;;;;;2.00;2.00;;;;;22.06;44.32;101723.53;4957159;28;45907;-74
2023/11/18 05:51:00;;;;;;;;;1.67;1.67;;;;;21.99;44.32;101722.50;4957751;28;49014;-74
2023/11/18 05:53:26;;;;;;;;;1.67;1.67;;;;;22.05;44.59;101725.34;4958050;28;45362;-74
2023/11/18 05:55:51;;;;;;;;;2.33;2.33;;;;;22.04;44.62;101721.00;4957990;28;45402;-75
2023/11/18 05:58:16;;;;;;;;;3.00;3.00;;;;;21.99;44.59;101723.31;4957519;28;56232;-75
2023/11/18 06:00:42;;;;;;;;;3.00;3.00;;;;;22.01;44.12;101724.00;4957855;28;45989;-74
2023/11/18 06:03:07;;;;;;;;;4.33;2.33;;;;;22.04;44.18;101709.59;4957515;28;45361;-74
2023/11/18 06:05:34;;;;;;;;;2.00;2.00;;;;;21.95;44.55;101696.31;4956066;28;55359;-75
2023/11/18 06:08:00;;;;;;;;;2.67;1.33;;;;;22.03;44.04;101699.97;4957735;28;47024;-75
2023/11/18 06:10:25;;;;;;;;;5.00;3.00;;;;;21.99;44.03;101693.34;4957575;28;45423;-74
2023/11/18 06:12:51;;;;;;;;;2.33;2.00;;;;;21.96;44.52;101694.50;4957848;28;45313;-74
2023/11/18 06:15:18;;;;;;;;;1.00;1.00;;;;;22.04;44.12;101704.31;4957719;28;45496;-73
2023/11/18 06:17:45;;;;;;;;;1.67;1.67;;;;;22.02;44.61;101703.59;4957282;28;47262;-74
2023/11/18 06:20:14;;;;;;;;;1.67;1.67;;;;;22.03;44.21;101700.81;4957464;28;45392;-74
2023/11/18 06:22:39;;;;;;;;;3.00;2.00;;;;;21.93;44.15;101689.50;4957532;28;45343;-74
2023/11/18 06:25:07;;;;;;;;;1.67;1.67;;;;;22.04;44.63;101706.97;4957533;28;45289;-74
2023/11/18 06:27:33;;;;;;;;;2.33;2.00;;;;;21.88;44.24;101694.47;4957423;28;46102;-74
2023/11/18 06:29:58;;;;;;;;;2.67;2.00;;;;;22.03;44.27;101715.88;4957268;28;45452;-75
2023/11/18 06:32:25;;;;;;;;;1.33;1.33;;;;;22.02;44.73;101712.41;4956364;28;62644;-74
2023/11/18 06:34:51;;;;;;;;;2.00;2.00;;;;;22.03;44.08;101707.94;4957440;28;45441;-74
2023/11/18 06:37:16;;;;;;;;;1.33;0.67;;;;;21.91;44.80;101694.16;4957195;28;46044;-74
2023/11/18 06:39:45;;;;;;;;;4.33;2.00;;;;;22.01;44.54;101697.50;4956970;28;51822;-74
2023/11/18 06:42:11;;;;;;;;;2.33;2.00;;;;;22.01;44.57;101692.19;4957453;28;45475;-74
2023/11/18 06:44:37;;;;;;;;;1.00;1.00;;;;;22.02;44.27;101691.19;4957176;28;45401;-74
2023/11/18 06:47:05;;;;;;;;;1.33;1.33;;;;;21.96;44.69;101684.72;4956331;28;46312;-74
2023/11/18 06:49:34;;;;;;;;;2.00;2.00;;;;;22.04;44.45;101686.56;4957117;28;45359;-74
2023/11/18 06:52:03;;;;;;;;;2.00;1.00;;;;;22.04;44.23;101680.44;4957114;28;45345;-74
2023/11/18 06:54:28;;;;;;;;;3.00;2.00;;;;;21.95;43.95;101663.69;4957211;28;45387;-74
2023/11/18 06:56:54;;;;;;;;;3.67;2.00;;;;;22.06;44.51;101683.78;4956245;28;45417;-74
2023/11/18 06:59:19;;;;;;;;;1.00;1.00;;;;;22.06;44.17;101681.97;4956893;28;45374;-75
2023/11/18 07:01:44;;;;;;;;;2.00;2.00;;;;;22.06;44.23;101678.47;4956966;28;45438;-74
2023/11/18 07:04:10;;;;;;;;;3.00;2.00;;;;;22.06;44.06;101681.13;4957115;28;45365;-74
2023/11/18 07:06:39;;;;;;;;;1.00;1.00;;;;;21.94;44.16;101665.50;4956767;28;45421;-74
2023/11/18 07:09:13;;;;;;;;;2.00;2.00;;;;;22.05;44.59;101692.69;4955755;28;45748;-74
2023/11/18 07:11:40;;;;;;;;;3.00;2.00;;;;;22.02;44.57;101685.06;4956856;28;45658;-74
2023/11/18 07:14:08;;;;;;;;;1.67;1.67;;;;;21.93;44.07;101674.44;4956828;28;45394;-74
2023/11/18 07:16:34;;;;;;;;;2.67;1.33;;;;;22.03;44.64;101684.91;4956109;28;46205;-74
2023/11/18 07:18:59;;;;;;;;;1.33;0.67;;;;;22.03;44.06;101681.44;4956922;28;45426;-75
2023/11/18 07:21:25;;;;;;;;;1.33;1.33;;;;;21.90;44.29;101656.22;4956845;28;45404;-74
2023/11/18 07:23:50;;;;;;;;;1.67;1.67;;;;;22.04;44.62;101669.84;4956802;28;45417;-74
2023/11/18 07:26:15;;;;;;;;;0.67;0.67;;;;;22.03;44.36;101668.19;4956654;28;47330;-74
2023/11/18 07:28:41;;;;;;;;;1.67;1.67;;;;;21.93;44.86;101647.97;4956746;28;45410;-75
2023/11/18 07:31:07;;;;;;;;;2.00;2.00;;;;;21.92;44.72;101646.28;4955127;28;45527;-74
2023/11/18 07:33:33;;;;;;;;;1.00;1.00;;;;;22.00;44.42;101642.00;4956701;28;45401;-74
2023/11/18 07:35:58;;;;;;;;;1.00;0.00;;;;;22.02;44.47;101637.38;4955726;28;59163;-74
2023/11/18 07:38:24;;;;;;;;;2.00;2.00;;;;;21.96;44.35;101634.38;4956506;28;45424;-74
2023/11/18 07:40:49;;;;;;;;;1.67;1.67;;;;;22.01;43.94;101646.31;4956628;28;45468;-74
2023/11/18 07:43:15;;;;;;;;;0.67;0.67;;;;;22.02;44.45;101655.91;4956499;28;45471;-74
2023/11/18 07:45:42;;;;;;;;;1.33;1.33;;;;;21.94;44.30;101651.41;4954764;28;47230;-74
2023/11/18 07:48:11;;;;;;;;;1.00;1.00;;;;;22.01;44.63;101665.72;4955947;28;45319;-74
2023/11/18 07:50:40;;;;;;;;;3.00;1.00;;;;;22.01;44.63;101652.47;4956527;28;45254;-74
2023/11/18 07:53:06;;;;;;;;;2.00;2.00;;;;;22.02;44.30;101663.84;4956350;28;45421;-74
2023/11/18 07:55:34;;;;;;;;;1.00;1.00;;;;;22.00;44.20;101664.03;4956120;28;46179;-74
2023/11/18 07:58:03;;;;;;;;;0.67;0.67;;;;;22.02;44.57;101672.66;4956210;28;45348;-74
2023/11/18 08:00:33;;;;;;;;;1.00;1.00;;;;;22.02;44.73;101685.91;4955879;28;45306;-74
2023/11/18 08:03:00;;;;;;;;;2.00;2.00;;;;;21.96;44.05;101668.81;4956245;28;45333;-74
2023/11/18 08:05:26;;;;;;;;;1.33;1.33;;;;;22.02;44.22;101693.00;4955948;28;46153;-74
2023/11/18 08:07:51;;;;;;;;;1.00;1.00;;;;;22.03;44.14;101692.88;4956917;28;45285;-74
2023/11/18 08:10:18;;;;;;;;;1.33;1.33;;;;;21.92;44.30;101679.88;4959716;28;45292;-74
2023/11/18 08:12:45;;;;;;;;;1.00;1.00;;;;;21.92;44.21;101664.00;4959492;28;45351;-74
2023/11/18 08:15:10;;;;;;;;;1.00;1.00;;;;;21.94;44.12;101660.19;4958973;28;47253;-74
2023/11/18 08:17:36;;;;;;;;;2.33;2.33;;;;;21.93;44.31;101666.50;4959412;28;45349;-74
2023/11/18 08:20:13;;;;;;;;;1.00;1.00;;;;;22.00;44.64;101663.19;4959494;28;45406;-75
2023/11/18 08:22:39;;;;;;;;;2.00;1.00;;;;;22.03;44.06;101681.44;4959585;28;45394;-74
2023/11/18 08:25:08;;;;;;;;;1.00;1.00;;;;;22.03;44.14;101661.06;4959027;28;46138;-74
2023/11/18 08:27:33;;;;;;;;;1.00;1.00;;;;;21.89;44.44;101635.16;4959271;28;45307;-74
2023/11/18 08:29:59;;;;;;;;;0.00;0.00;;;;;22.02;44.16;101645.31;4959048;28;45346;-74
2023/11/18 08:32:24;;;;;;;;;2.00;2.00;;;;;21.98;44.67;101647.47;4959314;28;45323;-74
2023/11/18 08:34:50;;;;;;;;;1.67;1.00;;;;;22.02;44.39;101640.00;4959046;28;47118;-75
2023/11/18 08:37:16;;;;;;;;;1.00;0.00;;;;;22.01;44.55;101654.28;4959189;28;45400;-74
2023/11/18 08:39:42;;;;;;;;;1.67;1.67;;;;;22.00;44.05;101653.44;4959221;28;45390;-74
2023/11/18 08:42:07;;;;;;;;;1.00;1.00;;;;;21.99;44.21;101649.13;4959193;28;45425;-74
2023/11/18 08:44:32;;;;;;;;;1.00;1.00;;;;;21.96;44.39;101642.31;4958444;28;47358;-75
2023/11/18 08:46:58;;;;;;;;;1.67;1.67;;;;;21.93;44.28;101612.69;4958795;28;45625;-75
2023/11/18 08:49:25;;;;;;;;;2.67;0.67;;;;;21.98;44.45;101628.09;4959076;28;45283;-74
2023/11/18 08:51:55;;;;;;;;;1.00;1.00;;;;;21.93;44.26;101612.69;4958881;28;45445;-74
2023/11/18 08:54:36;;;;;;;;;3.00;1.00;;;;;21.93;44.25;101597.63;4958626;28;47584;-74
2023/11/18 08:57:03;;;;;;;;;2.00;2.00;;;;;21.98;44.58;101605.06;4958560;28;45435;-75
2023/11/18 08:59:28;;;;;;;;;0.67;0.67;;;;;21.90;44.23;101587.34;4958782;28;45417;-74
2023/11/18 09:01:55;;;;;;;;;1.00;1.00;;;;;22.02;44.43;101608.22;4958535;28;45647;-74
2023/11/18 09:04:22;;;;;;;;;1.00;1.00;;;;;22.01;44.50;101606.56;4958376;28;46270;-74
2023/11/18 09:06:48;;;;;;;;;1.00;1.00;;;;;22.02;44.15;101587.84;4958547;28;45374;-74
2023/11/18 09:09:15;;;;;;;;;1.67;1.67;;;;;21.90;44.72;101565.31;4958649;28;45335;-74
2023/11/18 09:11:42;;;;;;;;;1.67;0.33;;;;;22.01;44.77;101599.47;4958307;28;45345;-74
2023/11/18 09:14:08;;;;;;;;;1.00;1.00;;;;;22.00;44.18;101567.81;4958331;28;46353;-74
2023/11/18 09:16:39;;;;;;;;;1.00;1.00;;;;;22.01;44.24;101533.22;4958549;28;45654;-74
2023/11/18 09:19:06;;;;;;;;;1.00;1.00;;;;;22.00;44.62;101536.84;4958081;28;45429;-75
2023/11/18 09:21:35;;;;;;;;;1.00;1.00;;;;;21.94;44.07;101540.97;4958595;28;45454;-74
2023/11/18 09:24:05;;;;;;;;;0.00;0.00;;;;;21.72;44.66;101511.44;4958225;28;46662;-75
2023/11/18 09:26:31;;;;;;;;;0.33;0.33;;;;;22.01;44.75;101542.97;4957917;28;45321;-74
2023/11/18 09:28:57;;;;;;;;;0.00;0.00;;;;;22.02;44.21;101539.31;4958537;28;45279;-74
2023/11/18 09:31:23;;;;;;;;;1.00;1.00;;;;;21.94;44.42;101530.38;4957180;28;45357;-74
2023/11/18 09:33:57;;;;;;;;;1.00;1.00;;;;;21.88;44.56;101540.81;4957983;28;45286;-74
2023/11/18 09:36:22;;;;;;;;;0.67;0.67;;;;;21.91;44.27;101549.22;4958039;28;45302;-74
2023/11/18 09:38:48;;;;;;;;;0.00;0.00;;;;;22.02;44.65;101548.09;4958335;28;45427;-74
2023/11/18 09:41:13;;;;;;;;;1.00;1.00;;;;;22.03;44.31;101544.47;4958109;28;45344;-74
2023/11/18 09:43:46;;;;;;;;;1.00;1.00;;;;;22.00;44.59;101549.25;4958074;28;45985;-74
2023/11/18 09:46:14;;;;;;;;;1.00;1.00;;;;;22.02;44.19;101548.09;4958070;28;45343;-75
2023/11/18 09:48:47;;;;;;;;;1.00;1.00;;;;;22.02;44.34;101541.97;4957697;28;45354;-75
2023/11/18 09:51:21;;;;;;;;;1.00;1.00;;;;;22.02;44.42;101534.84;4957990;28;45374;-74
2023/11/18 09:53:50;;;;;;;;;2.00;0.00;;;;;22.02;44.84;101541.97;4957815;28;47147;-74
2023/11/18 09:56:38;;;;;;;;;1.00;1.00;;;;;22.00;44.23;101526.25;4957531;28;45418;-74
2023/11/18 09:59:23;;;;;;;;;0.00;0.00;;;;;22.01;44.59;101513.84;4958103;28;45421;-74
2023/11/18 10:01:53;;;;;;;;;0.00;0.00;;;;;22.00;44.77;101502.41;4957953;28;45533;-75
2023/11/18 10:04:19;;;;;;;;;1.00;1.00;;;;;21.92;44.45;101491.78;4957647;28;47097;-74
2023/11/18 10:06:47;;;;;;;;;1.00;1.00;;;;;22.01;44.57;101512.03;4957731;28;45445;-75
2023/11/18 10:09:16;;;;;;;;;3.00;1.00;;;;;22.01;44.70;101511.19;4957717;28;45395;-74
2023/11/18 10:11:47;;;;;;;;;2.33;1.00;;;;;21.92;44.80;101479.38;4957511;28;45345;-74
2023/11/18 10:14:15;;;;;;;;;1.00;1.00;;;;;21.98;44.25;101512.34;4957340;28;47091;-74
2023/11/18 10:16:41;;;;;;;;;2.00;0.67;;;;;22.00;44.65;101505.06;4957553;28;45402;-74
2023/11/18 10:19:08;;;;;;;;;0.00;0.00;;;;;22.00;44.55;101497.09;4957589;28;45334;-74
2023/11/18 10:21:39;;;;;;;;;2.00;0.33;;;;;22.01;44.35;101517.31;4957555;28;45401;-74
2023/11/18 10:24:10;;;;;;;;;0.67;0.67;;;;;21.91;44.24;101521.94;4956961;28;46418;-74
2023/11/18 10:26:38;;;;;;;;;2.00;1.00;;;;;21.94;44.90;101522.41;4957361;28;45536;-74
2023/11/18 10:29:08;;;;;;;;;1.00;1.00;;;;;22.02;44.77;101544.63;4957573;28;45520;-74
2023/11/18 10:31:37;;;;;;;;;1.00;1.00;;;;;22.01;44.36;101554.41;4956439;28;45240;-74
2023/11/18 10:34:04;;;;;;;;;3.67;2.00;;;;;22.02;44.43;101556.06;4957056;28;46896;-74
2023/11/18 10:36:31;;;;;;;;;0.00;0.00;;;;;21.92;44.96;101550.91;4957277;28;45444;-74
2023/11/18 10:38:56;;;;;;;;;0.33;0.33;;;;;22.01;44.23;101572.13;4956906;28;45372;-74
2023/11/18 10:41:25;;;;;;;;;0.00;0.00;;;;;22.02;44.74;101560.53;4956769;28;60050;-74
2023/11/18 10:44:05;;;;;;;;;0.00;0.00;;;;;21.95;44.93;101533.84;4957195;28;45814;-74
2023/11/18 10:46:32;;;;;;;;;5.00;0.33;;;;;22.00;44.41;101549.25;4956892;28;45281;-74
2023/11/18 10:48:58;;;;;;;;;0.67;0.67;;;;;21.92;44.78;101526.22;4956997;28;45239;-74
2023/11/18 10:51:26;;;;;;;;;0.33;0.33;;;;;22.01;44.86;101535.03;4957025;28;45295;-74
2023/11/18 10:53:53;;;;;;;;;0.67;0.67;;;;;21.89;44.86;101514.13;4955940;28;46110;-74
2023/11/18 10:56:32;;;;;;;;;2.33;1.00;;;;;21.87;44.87;101505.53;4956596;28;45342;-73
2023/11/18 10:58:59;;;;;;;;;0.33;0.33;;;;;22.01;45.00;101532.38;4955776;28;45365;-74
2023/11/18 11:01:31;;;;;;;;;0.67;0.67;;;;;21.94;44.87;101506.53;4955992;28;45406;-73
2023/11/18 11:03:57;;;;;;;;;1.00;1.00;;;;;22.01;44.97;101519.13;4956756;28;45651;-74
2023/11/18 11:06:30;;;;;;;;;1.00;1.00;;;;;22.01;44.61;101540.31;4956797;28;45458;-75
2023/11/18 11:08:58;;;;;;;;;0.67;0.67;;;;;22.00;44.66;101520.13;4956741;28;45400;-73
2023/11/18 11:11:26;;;;;;;;;1.00;1.00;;;;;22.00;44.81;101475.91;4956827;28;45287;-74
2023/11/18 11:13:57;;;;;;;;;1.00;1.00;;;;;22.01;44.54;101469.63;4956764;28;45433;-75
2023/11/18 11:16:34;;;;;;;;;0.67;0.67;;;;;22.02;45.07;101455.38;4956739;28;45359;-76
2023/11/18 11:19:08;;;;;;;;;1.00;1.00;;;;;22.02;45.04;101454.53;4956917;28;45377;-73
2023/11/18 11:21:42;;;;;;;;;2.33;1.00;;;;;22.04;44.85;101453.38;4956798;28;45501;-73
2023/11/18 11:24:19;;;;;;;;;2.00;0.00;;;;;22.06;44.89;101456.72;4956104;28;46350;-73
2023/11/18 11:27:04;;;;;;;;;1.00;1.00;;;;;21.68;44.89;101404.16;4956531;28;45361;-73